EGJBEGKB

Guest
Details From EGJB - Guernsey
To EGKB - Biggin Hill
Flight Number -
Tags generated
Created
Modified
Stats Distance 152 nm / 281 km
Max Altitude 15,000 ft / 4,572 m
Waypoints 3
Social Downloads 1
Likes 0
Share VATSIM

Download

Looking for another format? Having issues loading an existing format? Contact us
Advertisement - Login to hide

Notes

Basic altitude profile: - Ascent Rate: 2100ft/min - Ascent Speed: 210kts - Cruise Altitude: 19000ft - Cruise Speed: 240kts - Descent Rate: 1800ft/min - Descent Speed: 240kts Options: - Use NATs: yes - Use PACOTS: yes - Use low airways: yes - Use high airways: yes

Route

EGJB ORIST EGKB

ID Type Via Altitude (ft/m) Position (lat/lon) Dist (leg/tot) Name
O EGJB APT - 0 / 0 49.43495 / -2.60197 - / 0 nm Guernsey
ORIST FIX - 15,000 / 4,572 50.00000 / -1.84500 44 / 44 nm
O EGKB APT - 0 / 0 51.32671 / 0.03288 107 / 151 nm Biggin Hill

Altitude Profile

Advertisement - Login to hide

EGJB

Details ICAO EGJB (GCI)
Name Guernsey
Region United Kingdom
Timezone Europe/Guernsey (UTC+1.0)
Stats Elevation 334 ft / 102 m (AMSL)
Location 49.434900° -2.602810°
Runways 1
Magnetic Variation 0.944° W

METAR

EGJB 231520Z 29013KT 9999 FEW008 14/12 Q1033

Decode

TAF

Not found

Departure Runways

ID Width Length Bearing (true/mag) Surface Threshold Overrun Markings Lighting
09 148 ft / 45 m 5,171 ft / 1,576 m 87.56° / 88.51° ASPHALT 0 ft / 0 m 0 ft / 0 m UK-PREC-APP CENTERLINE EDGE THRESHOLD CALVERT-ILS TDZ REIL-OMNI
27 148 ft / 45 m 5,171 ft / 1,576 m 267.58° / 268.52° ASPHALT 384 ft / 117 m 200 ft / 61 m UK-PREC-APP CENTERLINE EDGE THRESHOLD CALVERT-ILS TDZ REIL-OMNI

EGKB

Details ICAO EGKB (BQH)
Name Biggin Hill
Region United Kingdom
Timezone Europe/London (UTC+1.0)
Stats Elevation 598 ft / 182 m (AMSL)
Location 51.331000° 0.032457°
Runways 1
Magnetic Variation 0.249° W

METAR

EGKB 231520Z 29012KT 250V320 CAVOK 14/07 Q1029

Decode

TAF

Not found

Destination Runways

ID Width Length Bearing (true/mag) Surface Threshold Overrun Markings Lighting
03 149 ft / 46 m 5,898 ft / 1,798 m 25.64° / 25.89° ASPHALT 801 ft / 244 m 0 ft / 0 m VISUAL EDGE THRESHOLD REIL-OMNI
21 149 ft / 46 m 5,898 ft / 1,798 m 205.65° / 205.90° ASPHALT 0 ft / 0 m 0 ft / 0 m UK-PREC-APP EDGE THRESHOLD CALVERT REIL-OMNI

Approach Navaids

Runway Type Ident Frequency Range Bearing (true/mag) Slope Elevation
21 DME IBGH 109.35 MHz 18 nm / 33 km - - 570 ft / 174 m (AMSL)
21 LOC-ILS IBGH 109.35 MHz 18 nm / 33 km 205.65° / 205.90 ° - 598 ft / 182 m (AMSL)
21 GS IBGH 109.35 MHz 18 nm / 33 km 205.65° / 205.90 ° 3.00° 598 ft / 182 m (AMSL)